Terminal Aerodrome Forecast
Issued by NWS

Home | Current Version | Previous Version | Text Only | Print | Product List | Glossary On
Versions: 1 2 3 4 5 6 7 8 9 10 11 12 13 14 15 16 17 18 19 20 21 22 23 24 25 26 27 28 29 30 31
000
FTUS45 KREV 311200 AAA
TAFTRK
TAF AMD
KTRK 311232Z 3113/0112 00000KT 1/4SM FG BKN003
     FM311500 VRB03KT P6SM SCT120
     FM312100 VRB05KT P6SM VCTS SCT080CB BKN120
     FM010000 26008KT P6SM SCT080
     FM010300 VRB03KT P6SM FEW080=

USA.gov is the U.S. government's official web portal to all federal, state and local government web resources and services.